world map with EFPO marked

EFPO - Airport

This information may not be accurate or current and is not valid for navigation or flight planning. No warranty of fitness for any purpose is made or implied.

flag of Finland

Donate via PayPal

Additional information is available on the NEW Great Circle Mapper

Location
City:  Pori, Finland
ICAO / IATA:EFPO / POR

Details
Type:Airport (Aerodrome, Airfield)
Latitude:61°27'42"N (61.461686)
Longitude:21°48'00"E (21.799983)
Datum:WGS 1984
Elevation:44 ft (13 m)
Runways:2
Longest:7713 × 197 ft (2351 × 60 m)

Time
Timezone:UTC+2 (DST+3)
Local Time:

Weather
METAR:EFPO  231520Z AUTO 14009KT CAVOK M02/M06 Q1031
TAF:EFPO  (expired)

Related Locations
Nearby:
Farthest:NZWD: 11064 mi / 17805 km
McMurdo Station [Williams Field], Ross Island, AQ

Find:

   beyond  
but within

Other Information
Maps:
Links:
Sources:

  


 


Great Circle Mapper   Great Circle Mapper
Great Circle Mapper FAQ   Great Circle Mapper FAQ
  Karl's Home Page
KLSē   KLSē Home
   GC on Facebook
Airlines of the World   Airlines of the World
Donate via PayPal


Copyright © 2004-2014, Karl L. Swartz. All rights reserved.
All trademarks mentioned herein belong to their respective owners.

Please see credits for attribution and copyright information.

Karl Swartz <karl@kls2.com>
  Powered by FreeBSD
Valid HTML 4.01!
Labeled with ICRA
hCard Microformat
Geo Microformat